Aeroporto :
LOGIN :

Iscrizione | Disclaimer

   EN    FR    IT 

 










Sommario :    VFR   VFR Marginale   IFR   IFR Intensivo   IFR Molto Intensivo
Visibilità : 
Base nubi : 
>= 8 km
>= 3000ft
5 / 8 km
1000 / 3000 ft
1500m / 5 km
500 / 1000 ft
800 / 1500m
200 / 500 ft
< 800m
< 200 ft
Simboli :   Temporali  Nebbia  Neve Forte  Precipitazioni Forti  Vento > 20 kt
SIGMETs :   Varie  Temporali  Ghiacco  Turbolenza  Onda orograficha  Ceneri Vulcaniche






- Altitudine del aeroporto : 529 ft
- Codice IATA : CHR


LFLX - Chateauroux

ULTIMO METAR :
  • 191730Z AUTO 08002KT 9999 FEW041 04/03 Q1017 BECMG 4000 BR

METARs OBSOLETI :
  • 191700Z AUTO 04003KT 9999 BKN041 04/04 Q1017 TEMPO 3000 BR BKN004
  • 191630Z AUTO 36002KT 9999 -RA OVC040 05/04 Q1017 TEMPO 3000 BR BKN004
  • 191600Z AUTO 34002KT 9999 BKN042 06/05 Q1017 NOSIG
  • 191530Z AUTO 34005KT 9999 FEW042 06/05 Q1017 NOSIG
  • 191500Z AUTO 30003KT 9999 FEW040 07/05 Q1017 NOSIG

TAF TAF LFLX
Valido dal 19 a 18 ore il 21 a 00 ore UTC


191700Z 1918/2024 06005KT 8000 BKN040
BECMG 1918/1920 4000 BR
TEMPO 1920/2008 MIFG
PROB30
TEMPO 2000/2005 0800 FG
BECMG 2006/2009 CAVOK
PROB40
TEMPO 2017/2024 3000 BR
PROB30
TEMPO 2022/2024 0800 FG



MetMap, La meteo Aeronautica in un colpo d'occhio ! - Copyright ORBIFLY Dicembre 2007 - Disclaimer

ORBIFLY MET'MAP TEAM :

Programmazione e sviluppo : Alexandra Zaïnal
Concezione e sviluppo : Baudouin d'Aumeries
Co-Programmazione e sviluppo : Marc-Olivier Méhu
Supporto tecnico e logistico : Manuel Goepfert
Aiuto per la traduzione : Arnaldo La Scala

Contatto : metmap@orbifly.com




FONTI E CREDITI :

   NOAA